createdAt,value
2019-02-12T00:01:45.215Z,36.38
2019-02-12T00:04:24.800Z,29.98
2019-02-12T00:07:03.482Z,43.60
2019-02-12T00:09:42.548Z,42.85
2019-02-12T00:12:20.992Z,31.30
2019-02-12T00:15:00.037Z,30.43
2019-02-12T00:17:39.305Z,30.65
2019-02-12T00:20:18.690Z,33.25
2019-02-12T00:22:57.359Z,36.73
2019-02-12T00:25:36.042Z,34.65
2019-02-12T00:28:15.295Z,41.50
2019-02-12T00:30:53.868Z,52.95
2019-02-12T00:33:32.680Z,46.92
2019-02-12T00:36:11.301Z,74.85
2019-02-12T00:38:50.243Z,66.33
2019-02-12T00:41:29.095Z,62.88
2019-02-12T00:44:07.944Z,53.40
2019-02-12T00:46:46.519Z,45.35
2019-02-12T00:49:25.208Z,38.45
2019-02-12T00:52:04.159Z,29.35
2019-02-12T00:54:42.686Z,33.18
2019-02-12T00:57:21.625Z,34.70
2019-02-12T01:00:00.344Z,37.75
2019-02-12T01:02:39.518Z,41.50
2019-02-12T01:05:18.210Z,33.30
2019-02-12T01:07:56.918Z,24.85
2019-02-12T01:10:35.266Z,22.25
2019-02-12T01:13:14.071Z,30.55
2019-02-12T01:15:52.674Z,23.83
2019-02-12T01:18:31.257Z,36.88
2019-02-12T01:21:10.082Z,24.18
2019-02-12T01:23:49.249Z,27.73
2019-02-12T01:26:28.267Z,32.08
2019-02-12T01:29:06.656Z,23.60
2019-02-12T01:31:46.575Z,29.82
2019-02-12T01:34:25.523Z,22.35
2019-02-12T01:37:04.424Z,24.57
2019-02-12T01:39:43.009Z,25.80
2019-02-12T01:42:21.695Z,21.70
2019-02-12T01:45:01.617Z,20.55
2019-02-12T01:47:40.672Z,25.88
2019-02-12T01:50:20.020Z,21.48
2019-02-12T01:52:59.076Z,25.68
2019-02-12T01:55:38.071Z,26.82
2019-02-12T01:58:16.942Z,19.85
2019-02-12T02:00:55.766Z,18.45
2019-02-12T02:03:34.625Z,28.62
2019-02-12T02:06:13.612Z,19.85
2019-02-12T02:08:52.426Z,17.67
2019-02-12T02:11:31.889Z,18.60
2019-02-12T02:14:10.645Z,24.60
2019-02-12T02:16:49.486Z,21.33
2019-02-12T02:19:28.461Z,19.23
2019-02-12T02:22:07.140Z,22.75
2019-02-12T02:24:47.129Z,19.48
2019-02-12T02:27:25.844Z,22.40
2019-02-12T02:30:04.806Z,28.90
2019-02-12T02:32:43.182Z,22.32
2019-02-12T02:35:22.116Z,20.88
2019-02-12T02:38:01.178Z,23.52
2019-02-12T02:40:40.323Z,23.52
2019-02-12T02:43:19.280Z,21.48
2019-02-12T02:45:57.783Z,25.72
2019-02-12T02:48:36.395Z,23.38
2019-02-12T02:51:15.723Z,22.25
2019-02-12T02:53:54.277Z,21.33
2019-02-12T02:56:33.164Z,25.05
2019-02-12T02:59:11.763Z,18.65
2019-02-12T03:01:50.917Z,19.82
2019-02-12T03:04:29.608Z,19.82
2019-02-12T03:07:08.704Z,17.05
2019-02-12T03:09:47.214Z,19.00
2019-02-12T03:12:26.543Z,22.48
2019-02-12T03:15:04.963Z,19.27
2019-02-12T03:17:44.105Z,25.82
2019-02-12T03:20:23.835Z,26.33
2019-02-12T03:23:03.779Z,20.52
2019-02-12T03:25:43.295Z,23.62
2019-02-12T03:28:22.155Z,20.12
2019-02-12T03:31:00.564Z,20.23
2019-02-12T03:33:39.551Z,21.45
2019-02-12T03:36:19.673Z,21.90
2019-02-12T03:38:58.274Z,21.15
2019-02-12T03:41:37.364Z,20.80
2019-02-12T03:44:16.534Z,19.85
2019-02-12T03:46:55.205Z,24.15
2019-02-12T03:49:34.245Z,21.37
2019-02-12T03:52:13.364Z,26.73
2019-02-12T03:54:52.954Z,22.98
2019-02-12T03:57:31.880Z,25.02
2019-02-12T04:00:11.257Z,21.37
2019-02-12T04:03:09.957Z,24.35
2019-02-12T04:05:49.205Z,20.70
2019-02-12T04:08:27.467Z,21.00
2019-02-12T04:11:06.163Z,23.83
2019-02-12T04:13:44.806Z,21.87
2019-02-12T04:16:24.086Z,20.55
2019-02-12T04:19:02.837Z,24.20
2019-02-12T04:21:41.187Z,21.57
2019-02-12T04:24:20.594Z,27.95
2019-02-12T04:26:59.236Z,19.17
2019-02-12T04:29:38.099Z,22.90
2019-02-12T04:32:16.792Z,24.12
2019-02-12T04:34:55.789Z,23.02
2019-02-12T04:37:34.425Z,27.27
2019-02-12T04:40:14.070Z,24.35
2019-02-12T04:42:52.878Z,19.90
2019-02-12T04:45:31.819Z,21.12
2019-02-12T04:48:10.400Z,19.20
2019-02-12T04:50:50.570Z,39.83
2019-02-12T04:53:29.161Z,24.43
2019-02-12T04:56:07.939Z,18.60
2019-02-12T04:58:46.646Z,21.95
2019-02-12T05:01:25.685Z,24.95
2019-02-12T05:04:04.545Z,19.92
2019-02-12T05:06:43.107Z,23.27
2019-02-12T05:09:25.910Z,19.30
2019-02-12T05:12:06.888Z,21.70
2019-02-12T05:14:45.678Z,25.15
2019-02-12T05:17:25.649Z,18.20
2019-02-12T05:20:04.528Z,21.27
2019-02-12T05:22:43.987Z,20.52
2019-02-12T05:25:22.959Z,21.05
2019-02-12T05:28:01.991Z,19.50
2019-02-12T05:30:41.074Z,20.20
2019-02-12T05:33:20.195Z,19.98
2019-02-12T05:36:00.793Z,21.20
2019-02-12T05:38:39.576Z,20.25
2019-02-12T05:41:18.518Z,20.20
2019-02-12T05:43:57.532Z,26.33
2019-02-12T05:46:36.452Z,19.37
2019-02-12T05:49:14.890Z,19.25
2019-02-12T05:51:53.917Z,17.10
2019-02-12T05:54:33.008Z,20.05
2019-02-12T05:57:12.142Z,21.02
2019-02-12T05:59:50.862Z,18.67
2019-02-12T06:02:30.064Z,18.05
2019-02-12T06:05:08.496Z,17.48
2019-02-12T06:07:47.304Z,18.80
2019-02-12T06:10:25.860Z,22.30
2019-02-12T06:13:04.697Z,21.02
2019-02-12T06:15:43.552Z,19.20
2019-02-12T06:18:22.074Z,17.30
2019-02-12T06:21:00.685Z,22.32
2019-02-12T06:23:39.467Z,22.02
2019-02-12T06:26:18.473Z,20.20
2019-02-12T06:28:56.910Z,21.42
2019-02-12T06:31:35.903Z,22.13
2019-02-12T06:34:14.071Z,18.90
2019-02-12T06:36:53.712Z,19.15
2019-02-12T06:39:32.065Z,20.60
2019-02-12T06:42:10.956Z,20.68
2019-02-12T06:44:49.656Z,17.62
2019-02-12T06:47:28.563Z,19.80
2019-02-12T06:50:07.347Z,22.35
2019-02-12T06:52:46.369Z,19.45
2019-02-12T06:55:25.103Z,20.77
2019-02-12T06:58:04.134Z,26.77
2019-02-12T07:00:42.868Z,19.02
2019-02-12T07:03:29.658Z,20.55
2019-02-12T07:06:32.837Z,23.90
2019-02-12T07:09:31.155Z,21.25
2019-02-12T07:13:03.243Z,20.35
2019-02-12T07:16:31.509Z,29.52
2019-02-12T07:19:38.257Z,20.55
2019-02-12T07:23:03.476Z,20.85
2019-02-12T07:26:09.587Z,25.37
2019-02-12T07:29:15.420Z,20.25
2019-02-12T07:32:36.616Z,20.72
2019-02-12T07:35:42.049Z,20.35
2019-02-12T07:38:53.318Z,21.80
2019-02-12T07:42:16.858Z,19.37
2019-02-12T07:45:21.809Z,34.20
2019-02-12T07:48:21.934Z,24.72
2019-02-12T07:51:26.223Z,25.12
2019-02-12T07:54:21.659Z,21.30
2019-02-12T07:57:32.532Z,23.20
2019-02-12T08:00:51.634Z,21.80
2019-02-12T08:03:58.154Z,20.45
2019-02-12T08:07:12.037Z,23.12
2019-02-12T08:10:30.633Z,23.18
2019-02-12T08:13:23.718Z,26.07
2019-02-12T08:16:13.240Z,23.35
2019-02-12T08:19:28.087Z,23.15
2019-02-12T08:22:53.523Z,20.95
2019-02-12T08:26:01.719Z,22.62
2019-02-12T08:29:11.323Z,25.92
2019-02-12T08:32:14.675Z,22.35
2019-02-12T08:35:30.783Z,28.67
2019-02-12T08:38:49.908Z,24.60
2019-02-12T08:41:48.808Z,23.92
2019-02-12T08:45:05.232Z,26.20
2019-02-12T08:48:12.985Z,21.17
2019-02-12T08:51:22.167Z,31.27
2019-02-12T08:54:42.840Z,24.85
2019-02-12T08:57:58.223Z,25.55
2019-02-12T09:00:47.616Z,21.12
2019-02-12T09:04:06.734Z,22.95
2019-02-12T09:07:20.034Z,22.50
2019-02-12T09:10:31.927Z,21.27
2019-02-12T09:13:32.978Z,24.57
2019-02-12T09:16:49.513Z,26.37
2019-02-12T09:19:50.931Z,31.90
2019-02-12T09:22:54.871Z,22.52
2019-02-12T09:25:50.280Z,24.27
2019-02-12T09:29:33.377Z,23.75
2019-02-12T09:33:05.266Z,20.88
2019-02-12T09:36:17.154Z,23.98
2019-02-12T09:39:30.529Z,22.22
2019-02-12T09:42:51.294Z,25.85
2019-02-12T09:46:26.003Z,30.23
2019-02-12T09:49:37.649Z,35.00
2019-02-12T09:52:54.939Z,25.50
2019-02-12T09:56:17.441Z,23.95
2019-02-12T09:59:45.021Z,22.27
2019-02-12T10:03:05.664Z,21.62
2019-02-12T10:06:05.101Z,23.52
2019-02-12T10:09:14.780Z,24.02
2019-02-12T10:12:40.128Z,24.15
2019-02-12T10:15:46.468Z,23.38
2019-02-12T10:18:48.211Z,27.87
2019-02-12T10:21:47.145Z,26.62
2019-02-12T10:25:18.310Z,25.05
2019-02-12T10:28:52.446Z,25.77
2019-02-12T10:31:51.605Z,26.60
2019-02-12T10:34:28.935Z,28.83
2019-02-12T10:37:06.513Z,21.87
2019-02-12T10:39:43.339Z,25.57
2019-02-12T10:42:20.961Z,26.68
2019-02-12T10:44:58.005Z,25.80
2019-02-12T10:47:35.402Z,29.18
2019-02-12T10:50:14.014Z,30.12
2019-02-12T10:52:52.815Z,26.27
2019-02-12T10:55:31.658Z,22.70
2019-02-12T10:58:10.478Z,47.93
2019-02-12T11:00:49.686Z,52.78
2019-02-12T11:03:28.269Z,74.92
2019-02-12T11:06:07.401Z,80.45
2019-02-12T11:08:47.361Z,59.50
2019-02-12T11:11:26.419Z,81.97
2019-02-12T11:14:05.289Z,67.45
2019-02-12T11:16:44.586Z,75.10
2019-02-12T11:19:23.949Z,72.67
2019-02-12T11:22:02.803Z,50.20
2019-02-12T11:24:41.208Z,67.80
2019-02-12T11:27:20.474Z,59.90
2019-02-12T11:29:59.231Z,49.95
2019-02-12T11:32:38.518Z,45.90
2019-02-12T11:35:17.136Z,38.00
2019-02-12T11:37:55.995Z,51.23
2019-02-12T11:40:34.501Z,50.78
2019-02-12T11:43:13.555Z,45.40
2019-02-12T11:45:52.313Z,48.55
2019-02-12T11:48:31.439Z,50.28
2019-02-12T11:51:10.076Z,57.05
2019-02-12T11:53:48.734Z,56.55
2019-02-12T11:56:27.976Z,43.83
2019-02-12T11:59:06.530Z,36.90
2019-02-12T12:01:45.328Z,44.98
2019-02-12T12:04:24.076Z,42.08
2019-02-12T12:07:03.108Z,49.93
2019-02-12T12:09:41.921Z,47.00
2019-02-12T12:12:20.696Z,63.08
2019-02-12T12:14:59.383Z,65.78
2019-02-12T12:17:38.902Z,67.97
2019-02-12T12:20:17.879Z,57.60
2019-02-12T12:22:56.892Z,42.08
2019-02-12T12:25:35.525Z,45.52
2019-02-12T12:28:14.362Z,37.63
2019-02-12T12:30:53.619Z,43.00
2019-02-12T12:33:32.464Z,40.95
2019-02-12T12:36:11.005Z,43.45
2019-02-12T12:38:50.340Z,41.35
2019-02-12T12:41:28.930Z,43.40
2019-02-12T12:44:07.891Z,38.75
2019-02-12T12:46:46.600Z,39.55
2019-02-12T12:49:27.272Z,39.03
2019-02-12T12:52:05.401Z,37.50
2019-02-12T12:54:44.594Z,38.38
2019-02-12T12:57:24.349Z,39.90
2019-02-12T13:00:03.271Z,40.83
2019-02-12T13:02:43.184Z,35.13
2019-02-12T13:05:22.496Z,42.25
2019-02-12T13:08:01.033Z,37.48
2019-02-12T13:10:39.161Z,39.03
2019-02-12T13:13:18.129Z,35.23
2019-02-12T13:15:57.008Z,41.23
2019-02-12T13:18:35.282Z,40.33
2019-02-12T13:21:13.988Z,41.73
2019-02-12T13:23:52.726Z,36.65
2019-02-12T13:26:31.157Z,41.50
2019-02-12T13:29:10.552Z,42.50
2019-02-12T13:31:50.220Z,37.17
2019-02-12T13:34:28.878Z,43.08
2019-02-12T13:37:07.796Z,42.17
2019-02-12T13:39:46.402Z,42.70
2019-02-12T13:42:26.587Z,37.88
2019-02-12T13:45:04.947Z,39.33
2019-02-12T13:47:43.903Z,34.75
2019-02-12T13:50:22.996Z,38.63
2019-02-12T13:53:02.078Z,41.13
2019-02-12T13:55:40.655Z,46.95
2019-02-12T13:58:19.725Z,41.53
2019-02-12T14:00:58.521Z,38.55
2019-02-12T14:03:37.394Z,46.00
2019-02-12T14:06:16.194Z,48.33
2019-02-12T14:08:54.749Z,45.48
2019-02-12T14:11:33.794Z,49.70
2019-02-12T14:14:12.969Z,50.20
2019-02-12T14:16:51.998Z,44.25
2019-02-12T14:19:30.964Z,52.70
2019-02-12T14:22:09.378Z,47.45
2019-02-12T14:24:48.245Z,45.52
2019-02-12T14:27:26.462Z,57.90
2019-02-12T14:30:05.498Z,47.05
2019-02-12T14:32:43.941Z,49.33
2019-02-12T14:35:22.735Z,55.58
2019-02-12T14:38:01.474Z,49.65
2019-02-12T14:40:40.493Z,53.92
2019-02-12T14:43:18.888Z,48.05
2019-02-12T14:45:58.026Z,46.75
2019-02-12T14:48:38.045Z,50.45
2019-02-12T14:51:16.943Z,57.45
2019-02-12T14:53:56.469Z,47.50
2019-02-12T14:56:35.841Z,47.25
2019-02-12T14:59:14.586Z,48.50
2019-02-12T15:01:53.139Z,50.60
2019-02-12T15:04:32.016Z,53.15
2019-02-12T15:07:10.760Z,51.02
2019-02-12T15:09:49.798Z,47.73
2019-02-12T15:12:28.549Z,49.27
2019-02-12T15:15:07.833Z,51.98
2019-02-12T15:17:46.720Z,50.10
2019-02-12T15:20:25.463Z,52.58
2019-02-12T15:23:04.862Z,48.15
2019-02-12T15:25:43.936Z,44.20
2019-02-12T15:28:23.142Z,56.15
2019-02-12T15:31:02.087Z,49.03
2019-02-12T15:33:40.773Z,48.13
2019-02-12T15:36:19.582Z,48.95
2019-02-12T15:38:58.134Z,53.25
2019-02-12T15:41:36.985Z,53.83
2019-02-12T15:44:15.705Z,52.83
2019-02-12T15:46:54.507Z,53.80
2019-02-12T15:49:34.063Z,50.80
2019-02-12T15:52:13.006Z,61.20
2019-02-12T15:54:51.691Z,55.95
2019-02-12T15:57:31.059Z,54.80
2019-02-12T16:00:10.805Z,60.25
2019-02-12T16:02:49.517Z,52.83
2019-02-12T16:05:28.311Z,56.30
2019-02-12T16:08:08.913Z,53.20
2019-02-12T16:10:47.209Z,54.67
2019-02-12T16:13:26.036Z,55.75
2019-02-12T16:16:05.744Z,58.60
2019-02-12T16:18:46.019Z,52.05
2019-02-12T16:21:24.909Z,58.83
2019-02-12T16:24:03.855Z,57.85
2019-02-12T16:26:42.364Z,57.13
2019-02-12T16:29:21.305Z,55.48
2019-02-12T16:31:59.445Z,57.20
2019-02-12T16:34:38.282Z,53.92
2019-02-12T16:37:16.738Z,59.23
2019-02-12T16:39:55.705Z,57.58
2019-02-12T16:42:34.357Z,57.45
2019-02-12T16:45:15.115Z,64.75
2019-02-12T16:47:53.697Z,57.48
2019-02-12T16:50:34.274Z,67.42
2019-02-12T16:53:13.236Z,61.70
2019-02-12T16:55:52.003Z,65.32
2019-02-12T16:58:31.270Z,59.88
2019-02-12T17:01:09.846Z,63.15
2019-02-12T17:03:48.807Z,64.05
2019-02-12T17:06:28.113Z,54.48
2019-02-12T17:09:07.306Z,56.37
2019-02-12T17:11:46.896Z,60.48
2019-02-12T17:14:25.898Z,67.17
2019-02-12T17:17:05.021Z,63.02
2019-02-12T17:19:44.104Z,62.48
2019-02-12T17:22:22.924Z,65.05
2019-02-12T17:25:01.952Z,56.92
2019-02-12T17:27:41.009Z,58.20
2019-02-12T17:30:21.071Z,58.87
2019-02-12T17:32:59.766Z,62.08
2019-02-12T17:35:38.455Z,63.30
2019-02-12T17:38:17.586Z,59.77
2019-02-12T17:40:56.521Z,64.12
2019-02-12T17:43:34.983Z,62.33
2019-02-12T17:46:13.868Z,64.47
2019-02-12T17:48:52.656Z,59.70
2019-02-12T17:51:33.710Z,60.78
2019-02-12T17:54:12.131Z,58.17
2019-02-12T17:56:51.276Z,60.20
2019-02-12T17:59:30.123Z,60.20
2019-02-12T18:02:09.391Z,59.80
2019-02-12T18:04:48.189Z,58.42
2019-02-12T18:07:26.869Z,63.58
2019-02-12T18:10:05.530Z,62.23
2019-02-12T18:12:44.183Z,56.42
2019-02-12T18:15:22.753Z,66.45
2019-02-12T18:18:02.017Z,70.78
2019-02-12T18:20:40.605Z,67.17
2019-02-12T18:23:19.636Z,67.05
2019-02-12T18:25:58.509Z,66.30
2019-02-12T18:28:37.474Z,68.65
2019-02-12T18:31:16.383Z,64.15
2019-02-12T18:33:55.455Z,63.60
2019-02-12T18:36:34.231Z,70.03
2019-02-12T18:39:13.071Z,65.10
2019-02-12T18:41:52.145Z,67.90
2019-02-12T18:44:31.126Z,66.95
2019-02-12T18:47:09.912Z,73.28
2019-02-12T18:49:48.789Z,68.10
2019-02-12T18:52:28.483Z,69.67
2019-02-12T18:55:07.677Z,65.37
2019-02-12T18:57:46.438Z,78.00
2019-02-12T19:00:26.150Z,71.70
2019-02-12T19:03:05.048Z,79.85
2019-02-12T19:05:44.226Z,72.27
2019-02-12T19:08:24.627Z,74.37
2019-02-12T19:11:03.550Z,78.80
2019-02-12T19:13:42.347Z,70.22
2019-02-12T19:16:20.807Z,73.95
2019-02-12T19:18:59.898Z,74.67
2019-02-12T19:21:38.398Z,78.47
2019-02-12T19:24:17.427Z,76.70
2019-02-12T19:26:56.102Z,72.50
2019-02-12T19:29:35.022Z,72.42
2019-02-12T19:32:13.774Z,75.95
2019-02-12T19:34:53.641Z,71.62
2019-02-12T19:37:32.321Z,81.35
2019-02-12T19:40:11.913Z,73.10
2019-02-12T19:42:50.816Z,77.05
2019-02-12T19:45:29.224Z,74.25
2019-02-12T19:48:08.274Z,69.58
2019-02-12T19:50:46.824Z,77.72
2019-02-12T19:53:25.635Z,66.37
2019-02-12T19:56:04.375Z,72.17
2019-02-12T19:58:43.153Z,70.65
2019-02-12T20:01:22.521Z,69.75
2019-02-12T20:04:01.233Z,66.95
2019-02-12T20:06:40.319Z,66.72
2019-02-12T20:09:25.759Z,72.72
2019-02-12T20:12:04.251Z,66.82
2019-02-12T20:14:42.740Z,73.00
2019-02-12T20:17:21.847Z,71.72
2019-02-12T20:20:00.403Z,70.62
2019-02-12T20:22:39.450Z,70.65
2019-02-12T20:25:18.270Z,79.15
2019-02-12T20:27:57.315Z,67.85
2019-02-12T20:30:36.128Z,71.00
2019-02-12T20:33:14.949Z,72.85
2019-02-12T20:35:53.930Z,71.47
2019-02-12T20:38:32.870Z,66.25
2019-02-12T20:41:11.654Z,73.10
2019-02-12T20:43:50.874Z,77.50
2019-02-12T20:46:29.479Z,72.35
2019-02-12T20:49:08.593Z,67.92
2019-02-12T20:51:47.163Z,73.40
2019-02-12T20:54:26.194Z,70.60
2019-02-12T20:57:04.975Z,67.87
2019-02-12T20:59:43.977Z,65.57
2019-02-12T21:02:22.624Z,70.22
2019-02-12T21:05:01.878Z,67.10
2019-02-12T21:07:40.729Z,64.55
2019-02-12T21:10:21.055Z,73.97
2019-02-12T21:12:59.736Z,79.58
2019-02-12T21:15:38.400Z,69.87
2019-02-12T21:18:16.864Z,74.45
2019-02-12T21:20:55.654Z,70.28
2019-02-12T21:23:34.221Z,75.42
2019-02-12T21:26:13.002Z,75.50
2019-02-12T21:28:51.750Z,77.82
2019-02-12T21:31:30.500Z,72.82
2019-02-12T21:34:09.120Z,67.58
2019-02-12T21:36:48.019Z,75.25
2019-02-12T21:39:27.366Z,68.37
2019-02-12T21:42:06.554Z,75.57
2019-02-12T21:44:45.251Z,71.70
2019-02-12T21:47:25.378Z,68.28
2019-02-12T21:50:03.967Z,74.42
2019-02-12T21:52:42.807Z,72.05
2019-02-12T21:55:22.159Z,72.45
2019-02-12T21:58:01.190Z,75.30
2019-02-12T22:00:39.695Z,77.72
2019-02-12T22:03:18.412Z,77.08
2019-02-12T22:05:57.088Z,74.12
2019-02-12T22:08:36.123Z,71.40
2019-02-12T22:11:15.798Z,69.03
2019-02-12T22:13:55.078Z,78.10
2019-02-12T22:16:33.851Z,74.25
2019-02-12T22:19:12.471Z,83.95
2019-02-12T22:21:51.566Z,74.85
2019-02-12T22:24:30.515Z,84.35
2019-02-12T22:27:09.027Z,75.57
2019-02-12T22:29:48.101Z,74.15
2019-02-12T22:32:27.052Z,76.30
2019-02-12T22:35:06.118Z,71.10
2019-02-12T22:37:45.131Z,76.00
2019-02-12T22:40:24.401Z,75.72
2019-02-12T22:43:03.082Z,74.22
2019-02-12T22:45:42.408Z,78.55
2019-02-12T22:48:21.073Z,72.87
2019-02-12T22:51:00.369Z,79.92
2019-02-12T22:53:38.924Z,77.62
2019-02-12T22:56:17.798Z,76.45
2019-02-12T22:58:56.472Z,77.53
2019-02-12T23:01:42.759Z,75.75
2019-02-12T23:04:21.468Z,73.57
2019-02-12T23:07:00.630Z,78.75
2019-02-12T23:09:39.389Z,81.53
2019-02-12T23:12:18.728Z,86.35
2019-02-12T23:14:57.243Z,82.92
2019-02-12T23:17:35.987Z,85.40
2019-02-12T23:20:14.667Z,97.33
2019-02-12T23:22:53.567Z,86.57
2019-02-12T23:25:32.582Z,79.92
2019-02-12T23:28:11.079Z,78.83
2019-02-12T23:30:50.067Z,84.67
2019-02-12T23:33:28.829Z,82.20
2019-02-12T23:36:07.665Z,88.55
2019-02-12T23:38:46.321Z,85.40
2019-02-12T23:41:25.658Z,85.05
2019-02-12T23:44:05.510Z,97.25
2019-02-12T23:46:44.550Z,88.15
2019-02-12T23:49:23.932Z,84.32
2019-02-12T23:52:02.645Z,78.40
2019-02-12T23:54:41.726Z,83.67
2019-02-12T23:57:20.759Z,91.97
2019-02-12T23:59:59.412Z,84.70
